Arsenal, Arkansas
Current Conditions -  °F | °C
As of 3:53 AM on Saturday 22 Nov 2014 (Local Time) from KPBF Reporting Station
Broken Clouds Broken Clouds  
Wind Chill: 12°   Ceiling: 6500
Heat Index: 12°   Visibility: 10mi
Dew Point:   Wind: 6mph
Humidity: 80%   Direction: 170°S
Pressure: 30.23"   Gusts: NA
Location:  34.193°N, 91.9403°W
Report Text: KPBF 220953Z AUTO 17005KT 10SM BKN065 12/08 A3023 RMK AO2 SLP234 T01170083
Loading
Personal Weather Stations






























Interactive Weather Map New forecast layout! Learn more

10-Day Weather Forecast

Advertisements
Track Severe Weather on mobile